sensor_id;sensor_type;location;lat;lon;timestamp;temperature;humidity
80279;DHT22;70683;52.492;13.416;2024-03-29T00:01:40;12.00;69.30
80279;DHT22;70683;52.492;13.416;2024-03-29T00:04:06;12.00;70.20
80279;DHT22;70683;52.492;13.416;2024-03-29T00:06:34;12.00;68.90
80279;DHT22;70683;52.492;13.416;2024-03-29T00:09:00;12.00;69.40
80279;DHT22;70683;52.492;13.416;2024-03-29T00:11:27;12.00;69.40
80279;DHT22;70683;52.492;13.416;2024-03-29T00:13:55;12.00;69.50
80279;DHT22;70683;52.492;13.416;2024-03-29T00:16:21;12.00;69.40
80279;DHT22;70683;52.492;13.416;2024-03-29T00:18:50;12.00;69.40
80279;DHT22;70683;52.492;13.416;2024-03-29T00:21:17;12.00;69.50
80279;DHT22;70683;52.492;13.416;2024-03-29T00:23:44;12.00;70.30
80279;DHT22;70683;52.492;13.416;2024-03-29T00:26:11;12.00;69.60
80279;DHT22;70683;52.492;13.416;2024-03-29T00:28:39;12.10;69.70
80279;DHT22;70683;52.492;13.416;2024-03-29T00:31:06;12.10;69.10
80279;DHT22;70683;52.492;13.416;2024-03-29T00:33:33;12.20;68.70
80279;DHT22;70683;52.492;13.416;2024-03-29T00:36:00;12.20;68.40
80279;DHT22;70683;52.492;13.416;2024-03-29T00:38:27;12.20;68.10
80279;DHT22;70683;52.492;13.416;2024-03-29T00:40:54;12.30;67.30
80279;DHT22;70683;52.492;13.416;2024-03-29T00:43:20;12.30;68.20
80279;DHT22;70683;52.492;13.416;2024-03-29T00:45:47;12.20;69.50
80279;DHT22;70683;52.492;13.416;2024-03-29T00:48:13;12.20;70.20
80279;DHT22;70683;52.492;13.416;2024-03-29T00:50:42;12.20;70.60
80279;DHT22;70683;52.492;13.416;2024-03-29T00:53:08;12.00;71.60
80279;DHT22;70683;52.492;13.416;2024-03-29T00:55:35;11.90;72.00
80279;DHT22;70683;52.492;13.416;2024-03-29T00:58:02;11.80;73.30
80279;DHT22;70683;52.492;13.416;2024-03-29T01:00:28;11.70;73.70
80279;DHT22;70683;52.492;13.416;2024-03-29T01:02:55;11.70;75.60
80279;DHT22;70683;52.492;13.416;2024-03-29T01:05:22;11.60;75.20
80279;DHT22;70683;52.492;13.416;2024-03-29T01:07:48;11.50;75.80
80279;DHT22;70683;52.492;13.416;2024-03-29T01:10:15;11.40;77.00
80279;DHT22;70683;52.492;13.416;2024-03-29T01:12:42;11.40;77.50
80279;DHT22;70683;52.492;13.416;2024-03-29T01:15:08;11.30;78.00
80279;DHT22;70683;52.492;13.416;2024-03-29T01:17:35;11.20;78.30
80279;DHT22;70683;52.492;13.416;2024-03-29T01:20:02;11.10;79.70
80279;DHT22;70683;52.492;13.416;2024-03-29T01:22:28;11.10;79.60
80279;DHT22;70683;52.492;13.416;2024-03-29T01:24:55;11.00;79.70
80279;DHT22;70683;52.492;13.416;2024-03-29T01:27:22;10.90;80.30
80279;DHT22;70683;52.492;13.416;2024-03-29T01:29:50;10.90;80.70
80279;DHT22;70683;52.492;13.416;2024-03-29T01:32:17;10.80;81.00
80279;DHT22;70683;52.492;13.416;2024-03-29T01:34:43;10.80;81.50
80279;DHT22;70683;52.492;13.416;2024-03-29T01:37:10;10.80;81.90
80279;DHT22;70683;52.492;13.416;2024-03-29T01:39:37;10.70;82.80
80279;DHT22;70683;52.492;13.416;2024-03-29T01:42:03;10.70;81.90
80279;DHT22;70683;52.492;13.416;2024-03-29T01:44:30;10.70;82.30
80279;DHT22;70683;52.492;13.416;2024-03-29T01:46:57;10.60;82.30
80279;DHT22;70683;52.492;13.416;2024-03-29T01:49:24;10.70;80.90
80279;DHT22;70683;52.492;13.416;2024-03-29T01:51:52;10.60;81.50
80279;DHT22;70683;52.492;13.416;2024-03-29T01:54:18;10.40;82.80
80279;DHT22;70683;52.492;13.416;2024-03-29T01:56:46;10.30;82.60
80279;DHT22;70683;52.492;13.416;2024-03-29T01:59:16;10.30;82.30
80279;DHT22;70683;52.492;13.416;2024-03-29T02:01:45;10.20;82.70
80279;DHT22;70683;52.492;13.416;2024-03-29T02:04:13;10.10;83.80
80279;DHT22;70683;52.492;13.416;2024-03-29T02:06:40;10.10;83.80
80279;DHT22;70683;52.492;13.416;2024-03-29T02:09:07;10.00;84.00
80279;DHT22;70683;52.492;13.416;2024-03-29T02:11:34;10.10;82.90
80279;DHT22;70683;52.492;13.416;2024-03-29T02:14:01;10.10;83.20
80279;DHT22;70683;52.492;13.416;2024-03-29T02:16:27;10.10;83.20
80279;DHT22;70683;52.492;13.416;2024-03-29T02:18:54;10.10;83.60
80279;DHT22;70683;52.492;13.416;2024-03-29T02:21:21;10.10;83.60
80279;DHT22;70683;52.492;13.416;2024-03-29T02:23:57;10.10;82.30
80279;DHT22;70683;52.492;13.416;2024-03-29T02:26:21;10.00;82.50
80279;DHT22;70683;52.492;13.416;2024-03-29T02:28:49;10.00;82.90
80279;DHT22;70683;52.492;13.416;2024-03-29T02:31:16;10.00;83.50
80279;DHT22;70683;52.492;13.416;2024-03-29T02:33:42;10.00;83.10
80279;DHT22;70683;52.492;13.416;2024-03-29T02:36:09;10.10;82.50
80279;DHT22;70683;52.492;13.416;2024-03-29T02:38:37;10.10;81.90
80279;DHT22;70683;52.492;13.416;2024-03-29T02:41:03;10.10;81.90
80279;DHT22;70683;52.492;13.416;2024-03-29T02:43:30;10.00;81.80
80279;DHT22;70683;52.492;13.416;2024-03-29T02:45:57;10.10;81.60
80279;DHT22;70683;52.492;13.416;2024-03-29T02:48:24;10.00;81.70
80279;DHT22;70683;52.492;13.416;2024-03-29T02:50:50;10.00;81.90
80279;DHT22;70683;52.492;13.416;2024-03-29T02:53:17;10.00;81.50
80279;DHT22;70683;52.492;13.416;2024-03-29T02:55:43;10.00;81.40
80279;DHT22;70683;52.492;13.416;2024-03-29T02:58:10;10.00;80.90
80279;DHT22;70683;52.492;13.416;2024-03-29T03:00:37;10.00;80.90
80279;DHT22;70683;52.492;13.416;2024-03-29T03:03:03;9.90;81.60
80279;DHT22;70683;52.492;13.416;2024-03-29T03:05:30;9.90;80.90
80279;DHT22;70683;52.492;13.416;2024-03-29T03:07:57;9.80;81.30
80279;DHT22;70683;52.492;13.416;2024-03-29T03:10:29;9.80;81.10
80279;DHT22;70683;52.492;13.416;2024-03-29T03:13:02;9.70;81.40
80279;DHT22;70683;52.492;13.416;2024-03-29T03:15:29;9.70;82.90
80279;DHT22;70683;52.492;13.416;2024-03-29T03:17:55;9.60;82.30
80279;DHT22;70683;52.492;13.416;2024-03-29T03:20:22;9.60;82.10
80279;DHT22;70683;52.492;13.416;2024-03-29T03:22:51;9.50;82.00
80279;DHT22;70683;52.492;13.416;2024-03-29T03:25:18;9.50;82.20
80279;DHT22;70683;52.492;13.416;2024-03-29T03:27:45;9.50;82.10
80279;DHT22;70683;52.492;13.416;2024-03-29T03:30:12;9.50;82.40
80279;DHT22;70683;52.492;13.416;2024-03-29T03:32:39;9.40;82.60
80279;DHT22;70683;52.492;13.416;2024-03-29T03:35:06;9.40;82.90
80279;DHT22;70683;52.492;13.416;2024-03-29T03:37:33;9.30;82.30
80279;DHT22;70683;52.492;13.416;2024-03-29T03:39:59;9.40;82.40
80279;DHT22;70683;52.492;13.416;2024-03-29T03:42:26;9.40;83.00
80279;DHT22;70683;52.492;13.416;2024-03-29T03:44:53;9.40;83.60
80279;DHT22;70683;52.492;13.416;2024-03-29T03:47:19;9.30;82.40
80279;DHT22;70683;52.492;13.416;2024-03-29T03:49:46;9.30;82.80
80279;DHT22;70683;52.492;13.416;2024-03-29T03:52:13;9.30;82.40
80279;DHT22;70683;52.492;13.416;2024-03-29T03:54:39;9.30;82.30
80279;DHT22;70683;52.492;13.416;2024-03-29T03:57:06;9.30;82.00
80279;DHT22;70683;52.492;13.416;2024-03-29T03:59:33;9.20;82.10
80279;DHT22;70683;52.492;13.416;2024-03-29T04:01:59;9.30;81.90
80279;DHT22;70683;52.492;13.416;2024-03-29T04:04:26;9.30;81.60
80279;DHT22;70683;52.492;13.416;2024-03-29T04:06:53;9.30;81.50
80279;DHT22;70683;52.492;13.416;2024-03-29T04:09:19;9.20;82.40
80279;DHT22;70683;52.492;13.416;2024-03-29T04:11:46;9.20;80.90
80279;DHT22;70683;52.492;13.416;2024-03-29T04:14:12;9.20;81.20
80279;DHT22;70683;52.492;13.416;2024-03-29T04:16:39;9.20;81.30
80279;DHT22;70683;52.492;13.416;2024-03-29T04:19:06;9.10;81.70
80279;DHT22;70683;52.492;13.416;2024-03-29T04:21:33;9.10;82.30
80279;DHT22;70683;52.492;13.416;2024-03-29T04:23:59;9.00;82.00
80279;DHT22;70683;52.492;13.416;2024-03-29T04:26:26;9.00;81.10
80279;DHT22;70683;52.492;13.416;2024-03-29T04:28:53;9.00;81.20
80279;DHT22;70683;52.492;13.416;2024-03-29T04:31:20;9.10;81.20
80279;DHT22;70683;52.492;13.416;2024-03-29T04:33:46;9.00;81.70
80279;DHT22;70683;52.492;13.416;2024-03-29T04:36:13;9.10;81.90
80279;DHT22;70683;52.492;13.416;2024-03-29T04:38:39;9.00;81.40
80279;DHT22;70683;52.492;13.416;2024-03-29T04:41:07;9.00;80.80
80279;DHT22;70683;52.492;13.416;2024-03-29T04:43:33;9.10;80.70
80279;DHT22;70683;52.492;13.416;2024-03-29T04:46:08;9.10;80.90
80279;DHT22;70683;52.492;13.416;2024-03-29T04:48:40;9.10;81.20
80279;DHT22;70683;52.492;13.416;2024-03-29T04:51:08;9.00;81.20
80279;DHT22;70683;52.492;13.416;2024-03-29T04:53:36;9.10;80.00
80279;DHT22;70683;52.492;13.416;2024-03-29T04:56:04;9.10;80.20
80279;DHT22;70683;52.492;13.416;2024-03-29T04:58:31;9.20;80.20
80279;DHT22;70683;52.492;13.416;2024-03-29T05:00:58;9.30;79.30
80279;DHT22;70683;52.492;13.416;2024-03-29T05:03:25;9.30;79.10
80279;DHT22;70683;52.492;13.416;2024-03-29T05:05:52;9.30;79.20
80279;DHT22;70683;52.492;13.416;2024-03-29T05:08:20;9.30;79.00
80279;DHT22;70683;52.492;13.416;2024-03-29T05:10:49;9.30;78.80
80279;DHT22;70683;52.492;13.416;2024-03-29T05:13:17;9.30;79.00
80279;DHT22;70683;52.492;13.416;2024-03-29T05:15:47;9.40;78.60
80279;DHT22;70683;52.492;13.416;2024-03-29T05:18:14;9.40;78.70
80279;DHT22;70683;52.492;13.416;2024-03-29T05:20:40;9.40;79.30
80279;DHT22;70683;52.492;13.416;2024-03-29T05:23:09;9.30;79.00
80279;DHT22;70683;52.492;13.416;2024-03-29T05:25:38;9.30;79.30
80279;DHT22;70683;52.492;13.416;2024-03-29T05:28:05;9.30;79.50
80279;DHT22;70683;52.492;13.416;2024-03-29T05:30:33;9.40;79.20
80279;DHT22;70683;52.492;13.416;2024-03-29T05:33:03;9.40;78.90
80279;DHT22;70683;52.492;13.416;2024-03-29T05:35:30;9.40;79.60
80279;DHT22;70683;52.492;13.416;2024-03-29T05:37:57;9.40;78.80
80279;DHT22;70683;52.492;13.416;2024-03-29T05:40:24;9.40;78.70
80279;DHT22;70683;52.492;13.416;2024-03-29T05:42:53;9.50;79.30
80279;DHT22;70683;52.492;13.416;2024-03-29T05:45:30;9.40;78.50
80279;DHT22;70683;52.492;13.416;2024-03-29T05:47:58;9.50;78.10
80279;DHT22;70683;52.492;13.416;2024-03-29T05:50:25;9.50;77.70
80279;DHT22;70683;52.492;13.416;2024-03-29T05:52:52;9.50;77.90
80279;DHT22;70683;52.492;13.416;2024-03-29T05:55:19;9.50;77.90
80279;DHT22;70683;52.492;13.416;2024-03-29T05:57:46;9.60;77.50
80279;DHT22;70683;52.492;13.416;2024-03-29T06:00:14;9.60;77.70
80279;DHT22;70683;52.492;13.416;2024-03-29T06:02:42;9.70;78.80
80279;DHT22;70683;52.492;13.416;2024-03-29T06:05:11;9.70;77.80
80279;DHT22;70683;52.492;13.416;2024-03-29T06:07:38;9.80;76.80
80279;DHT22;70683;52.492;13.416;2024-03-29T06:10:05;9.80;76.40
80279;DHT22;70683;52.492;13.416;2024-03-29T06:12:33;9.80;76.70
80279;DHT22;70683;52.492;13.416;2024-03-29T06:15:01;9.90;77.30
80279;DHT22;70683;52.492;13.416;2024-03-29T06:17:33;10.00;76.80
80279;DHT22;70683;52.492;13.416;2024-03-29T06:20:02;10.00;76.60
80279;DHT22;70683;52.492;13.416;2024-03-29T06:22:30;10.10;75.90
80279;DHT22;70683;52.492;13.416;2024-03-29T06:24:57;10.10;75.50
80279;DHT22;70683;52.492;13.416;2024-03-29T06:27:25;10.10;75.10
80279;DHT22;70683;52.492;13.416;2024-03-29T06:29:52;10.20;75.70
80279;DHT22;70683;52.492;13.416;2024-03-29T06:32:18;10.30;75.70
80279;DHT22;70683;52.492;13.416;2024-03-29T06:34:45;10.30;75.70
80279;DHT22;70683;52.492;13.416;2024-03-29T06:37:12;10.40;75.30
80279;DHT22;70683;52.492;13.416;2024-03-29T06:39:38;10.50;75.90
80279;DHT22;70683;52.492;13.416;2024-03-29T06:42:05;10.50;74.90
80279;DHT22;70683;52.492;13.416;2024-03-29T06:44:34;10.60;74.20
80279;DHT22;70683;52.492;13.416;2024-03-29T06:47:01;10.70;73.40
80279;DHT22;70683;52.492;13.416;2024-03-29T06:49:27;10.70;73.50
80279;DHT22;70683;52.492;13.416;2024-03-29T06:51:54;10.80;73.90
80279;DHT22;70683;52.492;13.416;2024-03-29T06:54:23;10.90;73.50
80279;DHT22;70683;52.492;13.416;2024-03-29T06:56:52;11.00;72.90
80279;DHT22;70683;52.492;13.416;2024-03-29T06:59:19;11.10;73.40
80279;DHT22;70683;52.492;13.416;2024-03-29T07:01:46;11.20;72.70
80279;DHT22;70683;52.492;13.416;2024-03-29T07:04:16;11.40;73.10
80279;DHT22;70683;52.492;13.416;2024-03-29T07:06:43;11.50;71.40
80279;DHT22;70683;52.492;13.416;2024-03-29T07:09:11;11.70;71.60
80279;DHT22;70683;52.492;13.416;2024-03-29T07:11:38;11.80;70.50
80279;DHT22;70683;52.492;13.416;2024-03-29T07:14:05;11.90;69.90
80279;DHT22;70683;52.492;13.416;2024-03-29T07:16:32;12.00;68.70
80279;DHT22;70683;52.492;13.416;2024-03-29T07:18:59;12.00;68.50
80279;DHT22;70683;52.492;13.416;2024-03-29T07:21:25;11.90;69.00
80279;DHT22;70683;52.492;13.416;2024-03-29T07:23:52;11.90;69.10
80279;DHT22;70683;52.492;13.416;2024-03-29T07:26:19;12.00;68.70
80279;DHT22;70683;52.492;13.416;2024-03-29T07:28:45;12.10;69.30
80279;DHT22;70683;52.492;13.416;2024-03-29T07:31:12;12.20;68.40
80279;DHT22;70683;52.492;13.416;2024-03-29T07:33:38;12.30;69.40
80279;DHT22;70683;52.492;13.416;2024-03-29T07:36:06;12.40;68.60
80279;DHT22;70683;52.492;13.416;2024-03-29T07:38:36;12.40;67.70
80279;DHT22;70683;52.492;13.416;2024-03-29T07:41:03;12.50;66.40
80279;DHT22;70683;52.492;13.416;2024-03-29T07:43:40;12.60;66.30
80279;DHT22;70683;52.492;13.416;2024-03-29T07:46:08;12.60;65.50
80279;DHT22;70683;52.492;13.416;2024-03-29T07:48:35;12.70;65.00
80279;DHT22;70683;52.492;13.416;2024-03-29T07:51:03;12.80;64.90
80279;DHT22;70683;52.492;13.416;2024-03-29T07:53:29;12.80;65.00
80279;DHT22;70683;52.492;13.416;2024-03-29T07:55:56;12.80;65.30
80279;DHT22;70683;52.492;13.416;2024-03-29T07:58:22;12.90;64.70
80279;DHT22;70683;52.492;13.416;2024-03-29T08:00:52;12.90;64.30
80279;DHT22;70683;52.492;13.416;2024-03-29T08:03:20;13.00;64.20
80279;DHT22;70683;52.492;13.416;2024-03-29T08:06:01;13.00;64.40
80279;DHT22;70683;52.492;13.416;2024-03-29T08:08:31;13.10;63.50
80279;DHT22;70683;52.492;13.416;2024-03-29T08:10:59;13.20;63.30
80279;DHT22;70683;52.492;13.416;2024-03-29T08:13:26;13.30;63.30
80279;DHT22;70683;52.492;13.416;2024-03-29T08:15:57;13.30;63.70
80279;DHT22;70683;52.492;13.416;2024-03-29T08:18:25;13.40;64.20
80279;DHT22;70683;52.492;13.416;2024-03-29T08:20:53;13.40;64.10
80279;DHT22;70683;52.492;13.416;2024-03-29T08:23:22;13.40;65.00
80279;DHT22;70683;52.492;13.416;2024-03-29T08:25:48;13.30;64.60
80279;DHT22;70683;52.492;13.416;2024-03-29T08:28:18;13.30;64.70
80279;DHT22;70683;52.492;13.416;2024-03-29T08:30:45;13.30;65.30
80279;DHT22;70683;52.492;13.416;2024-03-29T08:33:11;13.40;66.20
80279;DHT22;70683;52.492;13.416;2024-03-29T08:35:38;13.40;66.50
80279;DHT22;70683;52.492;13.416;2024-03-29T08:38:07;13.40;66.20
80279;DHT22;70683;52.492;13.416;2024-03-29T08:40:33;13.40;66.00
80279;DHT22;70683;52.492;13.416;2024-03-29T08:43:02;13.50;65.10
80279;DHT22;70683;52.492;13.416;2024-03-29T08:45:30;13.60;64.80
80279;DHT22;70683;52.492;13.416;2024-03-29T08:47:57;13.60;63.70
80279;DHT22;70683;52.492;13.416;2024-03-29T08:50:23;13.80;64.00
80279;DHT22;70683;52.492;13.416;2024-03-29T08:52:50;13.90;64.00
80279;DHT22;70683;52.492;13.416;2024-03-29T08:55:18;14.00;64.40
80279;DHT22;70683;52.492;13.416;2024-03-29T08:57:45;14.10;63.20
80279;DHT22;70683;52.492;13.416;2024-03-29T09:00:12;14.20;62.60
80279;DHT22;70683;52.492;13.416;2024-03-29T09:02:39;14.30;62.60
80279;DHT22;70683;52.492;13.416;2024-03-29T09:05:06;14.40;61.80
80279;DHT22;70683;52.492;13.416;2024-03-29T09:07:33;14.60;61.80
80279;DHT22;70683;52.492;13.416;2024-03-29T09:10:00;14.80;61.50
80279;DHT22;70683;52.492;13.416;2024-03-29T09:12:26;15.00;59.90
80279;DHT22;70683;52.492;13.416;2024-03-29T09:14:53;15.20;59.50
80279;DHT22;70683;52.492;13.416;2024-03-29T09:17:19;15.40;58.20
80279;DHT22;70683;52.492;13.416;2024-03-29T09:19:50;15.50;58.00
80279;DHT22;70683;52.492;13.416;2024-03-29T09:22:18;15.70;58.10
80279;DHT22;70683;52.492;13.416;2024-03-29T09:24:45;15.90;56.70
80279;DHT22;70683;52.492;13.416;2024-03-29T09:27:12;16.00;55.90
80279;DHT22;70683;52.492;13.416;2024-03-29T09:29:38;16.10;55.50
80279;DHT22;70683;52.492;13.416;2024-03-29T09:32:05;16.10;55.00
80279;DHT22;70683;52.492;13.416;2024-03-29T09:34:32;16.00;55.10
80279;DHT22;70683;52.492;13.416;2024-03-29T09:36:58;16.00;55.70
80279;DHT22;70683;52.492;13.416;2024-03-29T09:39:25;16.10;55.30
80279;DHT22;70683;52.492;13.416;2024-03-29T09:41:53;16.10;55.00
80279;DHT22;70683;52.492;13.416;2024-03-29T09:44:22;16.00;54.80
80279;DHT22;70683;52.492;13.416;2024-03-29T09:46:50;15.90;55.30
80279;DHT22;70683;52.492;13.416;2024-03-29T09:49:18;15.90;55.30
80279;DHT22;70683;52.492;13.416;2024-03-29T09:51:46;16.00;55.30
80279;DHT22;70683;52.492;13.416;2024-03-29T09:54:13;16.00;54.70
80279;DHT22;70683;52.492;13.416;2024-03-29T09:56:42;16.00;52.90
80279;DHT22;70683;52.492;13.416;2024-03-29T09:59:09;15.90;53.40
80279;DHT22;70683;52.492;13.416;2024-03-29T10:01:36;15.80;54.00
80279;DHT22;70683;52.492;13.416;2024-03-29T10:04:03;15.70;53.60
80279;DHT22;70683;52.492;13.416;2024-03-29T10:06:34;15.70;53.50
80279;DHT22;70683;52.492;13.416;2024-03-29T10:09:01;15.70;53.50
80279;DHT22;70683;52.492;13.416;2024-03-29T10:11:29;15.70;53.90
80279;DHT22;70683;52.492;13.416;2024-03-29T10:13:55;15.70;54.30
80279;DHT22;70683;52.492;13.416;2024-03-29T10:16:22;15.70;54.30
80279;DHT22;70683;52.492;13.416;2024-03-29T10:18:50;15.70;55.10
80279;DHT22;70683;52.492;13.416;2024-03-29T10:21:17;15.60;55.50
80279;DHT22;70683;52.492;13.416;2024-03-29T10:23:43;15.60;56.20
80279;DHT22;70683;52.492;13.416;2024-03-29T10:26:12;15.40;57.00
80279;DHT22;70683;52.492;13.416;2024-03-29T10:28:39;15.20;58.40
80279;DHT22;70683;52.492;13.416;2024-03-29T10:31:06;14.90;60.80
80279;DHT22;70683;52.492;13.416;2024-03-29T10:33:33;14.90;60.70
80279;DHT22;70683;52.492;13.416;2024-03-29T10:36:02;14.70;61.30
80279;DHT22;70683;52.492;13.416;2024-03-29T10:38:31;14.60;61.70
80279;DHT22;70683;52.492;13.416;2024-03-29T10:40:58;14.60;61.80
80279;DHT22;70683;52.492;13.416;2024-03-29T10:43:25;14.40;63.00
80279;DHT22;70683;52.492;13.416;2024-03-29T10:45:55;14.40;63.40
80279;DHT22;70683;52.492;13.416;2024-03-29T10:48:25;14.40;63.10
80279;DHT22;70683;52.492;13.416;2024-03-29T10:50:54;14.50;63.50
80279;DHT22;70683;52.492;13.416;2024-03-29T10:53:23;14.50;64.60
80279;DHT22;70683;52.492;13.416;2024-03-29T10:55:54;14.40;65.50
80279;DHT22;70683;52.492;13.416;2024-03-29T10:58:25;14.50;66.20
80279;DHT22;70683;52.492;13.416;2024-03-29T11:00:56;14.50;67.20
80279;DHT22;70683;52.492;13.416;2024-03-29T11:03:37;14.60;66.70
80279;DHT22;70683;52.492;13.416;2024-03-29T11:06:05;14.60;67.00
80279;DHT22;70683;52.492;13.416;2024-03-29T11:08:34;14.60;67.80
80279;DHT22;70683;52.492;13.416;2024-03-29T11:11:04;14.70;67.40
80279;DHT22;70683;52.492;13.416;2024-03-29T11:13:38;15.00;66.30
80279;DHT22;70683;52.492;13.416;2024-03-29T11:16:05;15.20;64.90
80279;DHT22;70683;52.492;13.416;2024-03-29T11:18:32;15.50;64.00
80279;DHT22;70683;52.492;13.416;2024-03-29T11:21:01;15.70;62.80
80279;DHT22;70683;52.492;13.416;2024-03-29T11:23:30;15.80;62.30
80279;DHT22;70683;52.492;13.416;2024-03-29T11:25:57;16.00;61.20
80279;DHT22;70683;52.492;13.416;2024-03-29T11:28:31;16.10;60.30
80279;DHT22;70683;52.492;13.416;2024-03-29T11:31:02;16.00;60.40
80279;DHT22;70683;52.492;13.416;2024-03-29T11:33:43;16.20;60.10
80279;DHT22;70683;52.492;13.416;2024-03-29T11:36:13;16.20;59.80
80279;DHT22;70683;52.492;13.416;2024-03-29T11:38:42;16.20;59.70
80279;DHT22;70683;52.492;13.416;2024-03-29T11:41:12;16.20;59.70
80279;DHT22;70683;52.492;13.416;2024-03-29T11:43:40;16.10;59.50
80279;DHT22;70683;52.492;13.416;2024-03-29T11:46:10;16.10;59.70
80279;DHT22;70683;52.492;13.416;2024-03-29T11:48:37;16.20;59.50
80279;DHT22;70683;52.492;13.416;2024-03-29T11:51:07;16.10;59.20
80279;DHT22;70683;52.492;13.416;2024-03-29T11:53:36;16.00;59.50
80279;DHT22;70683;52.492;13.416;2024-03-29T11:56:04;15.90;60.10
80279;DHT22;70683;52.492;13.416;2024-03-29T11:58:33;15.90;60.00
80279;DHT22;70683;52.492;13.416;2024-03-29T12:01:00;15.80;60.70
80279;DHT22;70683;52.492;13.416;2024-03-29T12:03:29;15.70;61.60
80279;DHT22;70683;52.492;13.416;2024-03-29T12:05:58;15.60;62.40
80279;DHT22;70683;52.492;13.416;2024-03-29T12:08:33;15.60;63.80
80279;DHT22;70683;52.492;13.416;2024-03-29T12:11:01;15.50;64.80
80279;DHT22;70683;52.492;13.416;2024-03-29T12:13:29;15.40;65.60
80279;DHT22;70683;52.492;13.416;2024-03-29T12:15:56;15.30;65.90
80279;DHT22;70683;52.492;13.416;2024-03-29T12:18:25;15.30;65.90
80279;DHT22;70683;52.492;13.416;2024-03-29T12:20:53;15.30;65.60
80279;DHT22;70683;52.492;13.416;2024-03-29T12:23:21;15.20;65.80
80279;DHT22;70683;52.492;13.416;2024-03-29T12:25:49;15.40;66.40
80279;DHT22;70683;52.492;13.416;2024-03-29T12:28:17;15.50;64.70
80279;DHT22;70683;52.492;13.416;2024-03-29T12:30:46;15.70;64.90
80279;DHT22;70683;52.492;13.416;2024-03-29T12:33:14;15.80;62.80
80279;DHT22;70683;52.492;13.416;2024-03-29T12:35:43;16.00;60.60
80279;DHT22;70683;52.492;13.416;2024-03-29T12:38:12;16.00;59.70
80279;DHT22;70683;52.492;13.416;2024-03-29T12:40:42;16.20;59.40
80279;DHT22;70683;52.492;13.416;2024-03-29T12:43:10;16.30;58.00
80279;DHT22;70683;52.492;13.416;2024-03-29T12:45:39;16.60;56.60
80279;DHT22;70683;52.492;13.416;2024-03-29T12:48:14;16.80;55.70
80279;DHT22;70683;52.492;13.416;2024-03-29T12:50:44;17.10;55.10
80279;DHT22;70683;52.492;13.416;2024-03-29T12:53:12;17.30;54.60
80279;DHT22;70683;52.492;13.416;2024-03-29T12:55:42;17.40;54.10
80279;DHT22;70683;52.492;13.416;2024-03-29T12:58:14;17.80;53.20
80279;DHT22;70683;52.492;13.416;2024-03-29T13:00:42;17.90;52.60
80279;DHT22;70683;52.492;13.416;2024-03-29T13:03:09;18.10;51.80
80279;DHT22;70683;52.492;13.416;2024-03-29T13:05:37;18.30;51.40
80279;DHT22;70683;52.492;13.416;2024-03-29T13:08:11;18.40;50.80
80279;DHT22;70683;52.492;13.416;2024-03-29T13:10:39;18.60;50.20
80279;DHT22;70683;52.492;13.416;2024-03-29T13:13:07;18.70;49.70
80279;DHT22;70683;52.492;13.416;2024-03-29T13:15:36;18.60;49.60
80279;DHT22;70683;52.492;13.416;2024-03-29T13:18:05;18.60;47.90
80279;DHT22;70683;52.492;13.416;2024-03-29T13:20:35;18.60;46.90
80279;DHT22;70683;52.492;13.416;2024-03-29T13:23:04;18.50;47.30
80279;DHT22;70683;52.492;13.416;2024-03-29T13:25:30;18.40;47.30
80279;DHT22;70683;52.492;13.416;2024-03-29T13:27:58;18.30;47.10
80279;DHT22;70683;52.492;13.416;2024-03-29T13:30:26;18.20;47.00
80279;DHT22;70683;52.492;13.416;2024-03-29T13:32:53;18.10;47.90
80279;DHT22;70683;52.492;13.416;2024-03-29T13:35:21;18.00;46.80
80279;DHT22;70683;52.492;13.416;2024-03-29T13:37:50;17.90;46.40
80279;DHT22;70683;52.492;13.416;2024-03-29T13:40:20;17.80;47.00
80279;DHT22;70683;52.492;13.416;2024-03-29T13:42:47;17.70;47.00
80279;DHT22;70683;52.492;13.416;2024-03-29T13:45:15;17.90;46.80
80279;DHT22;70683;52.492;13.416;2024-03-29T13:47:44;18.00;46.40
80279;DHT22;70683;52.492;13.416;2024-03-29T13:50:13;18.20;46.80
80279;DHT22;70683;52.492;13.416;2024-03-29T13:52:42;18.40;45.30
80279;DHT22;70683;52.492;13.416;2024-03-29T13:55:09;18.50;45.00
80279;DHT22;70683;52.492;13.416;2024-03-29T13:57:36;18.50;45.00
80279;DHT22;70683;52.492;13.416;2024-03-29T14:00:05;18.40;44.80
80279;DHT22;70683;52.492;13.416;2024-03-29T14:02:33;18.50;44.50
80279;DHT22;70683;52.492;13.416;2024-03-29T14:05:00;18.60;44.80
80279;DHT22;70683;52.492;13.416;2024-03-29T14:07:27;18.80;44.80
80279;DHT22;70683;52.492;13.416;2024-03-29T14:09:54;18.80;44.30
80279;DHT22;70683;52.492;13.416;2024-03-29T14:12:20;18.90;44.20
80279;DHT22;70683;52.492;13.416;2024-03-29T14:14:49;18.90;44.20
80279;DHT22;70683;52.492;13.416;2024-03-29T14:17:18;18.90;44.60
80279;DHT22;70683;52.492;13.416;2024-03-29T14:19:45;18.90;44.70
80279;DHT22;70683;52.492;13.416;2024-03-29T14:22:11;18.90;45.00
80279;DHT22;70683;52.492;13.416;2024-03-29T14:24:40;18.80;45.10
80279;DHT22;70683;52.492;13.416;2024-03-29T14:27:07;18.80;45.70
80279;DHT22;70683;52.492;13.416;2024-03-29T14:29:34;18.70;46.50
80279;DHT22;70683;52.492;13.416;2024-03-29T14:32:01;18.70;46.90
80279;DHT22;70683;52.492;13.416;2024-03-29T14:34:29;18.80;47.00
80279;DHT22;70683;52.492;13.416;2024-03-29T14:36:58;18.60;47.30
80279;DHT22;70683;52.492;13.416;2024-03-29T14:39:25;18.50;48.10
80279;DHT22;70683;52.492;13.416;2024-03-29T14:41:52;18.40;48.20
80279;DHT22;70683;52.492;13.416;2024-03-29T14:44:19;18.40;48.80
80279;DHT22;70683;52.492;13.416;2024-03-29T14:46:47;18.40;49.20
80279;DHT22;70683;52.492;13.416;2024-03-29T14:49:14;18.50;48.70
80279;DHT22;70683;52.492;13.416;2024-03-29T14:51:43;18.50;48.80
80279;DHT22;70683;52.492;13.416;2024-03-29T14:54:11;18.40;49.00
80279;DHT22;70683;52.492;13.416;2024-03-29T14:56:37;18.50;48.60
80279;DHT22;70683;52.492;13.416;2024-03-29T14:59:06;18.50;48.70
80279;DHT22;70683;52.492;13.416;2024-03-29T15:01:35;18.40;49.10
80279;DHT22;70683;52.492;13.416;2024-03-29T15:04:03;18.40;49.60
80279;DHT22;70683;52.492;13.416;2024-03-29T15:06:30;18.20;49.80
80279;DHT22;70683;52.492;13.416;2024-03-29T15:08:57;18.10;50.20
80279;DHT22;70683;52.492;13.416;2024-03-29T15:11:25;18.20;50.40
80279;DHT22;70683;52.492;13.416;2024-03-29T15:13:51;18.20;51.00
80279;DHT22;70683;52.492;13.416;2024-03-29T15:16:18;18.20;50.70
80279;DHT22;70683;52.492;13.416;2024-03-29T15:18:47;18.20;51.30
80279;DHT22;70683;52.492;13.416;2024-03-29T15:21:14;18.10;51.40
80279;DHT22;70683;52.492;13.416;2024-03-29T15:23:40;18.20;51.40